createdAt,value
2023-04-07T00:00:02.348Z,66.65
2023-04-07T00:10:09.440Z,66.57
2023-04-07T00:20:16.403Z,66.99
2023-04-07T00:30:24.755Z,67.33
2023-04-07T00:40:31.671Z,67.62
2023-04-07T00:50:38.362Z,67.71
2023-04-07T01:00:44.226Z,68.08
2023-04-07T01:10:51.805Z,68.80
2023-04-07T01:20:58.796Z,69.00
2023-04-07T01:31:05.692Z,69.06
2023-04-07T01:41:12.561Z,69.16
2023-04-07T01:51:19.543Z,69.35
2023-04-07T02:01:26.729Z,69.45
2023-04-07T02:11:33.570Z,69.77
2023-04-07T02:21:41.204Z,69.92
2023-04-07T02:31:48.256Z,69.94
2023-04-07T02:41:55.080Z,70.46
2023-04-07T02:52:03.169Z,70.55
2023-04-07T03:02:09.606Z,70.63
2023-04-07T03:12:15.641Z,70.97
2023-04-07T03:22:21.954Z,71.19
2023-04-07T03:32:27.974Z,71.12
2023-04-07T03:42:34.417Z,70.48
2023-04-07T03:52:40.687Z,70.38
2023-04-07T04:02:47.372Z,70.47
2023-04-07T04:12:54.013Z,70.68
2023-04-07T04:23:00.558Z,70.70
2023-04-07T04:33:07.032Z,70.84
2023-04-07T04:43:13.127Z,71.08
2023-04-07T04:53:19.591Z,70.75
2023-04-07T05:03:26.238Z,70.86
2023-04-07T05:13:32.840Z,70.62
2023-04-07T05:23:38.978Z,70.56
2023-04-07T05:33:45.061Z,70.71
2023-04-07T05:43:51.545Z,70.91
2023-04-07T05:53:58.154Z,70.89
2023-04-07T06:04:04.331Z,70.87
2023-04-07T06:14:10.245Z,70.98
2023-04-07T06:24:16.546Z,70.63
2023-04-07T06:34:18.594Z,71.97
2023-04-07T06:44:22.619Z,74.20
2023-04-07T06:54:29.573Z,68.73
2023-04-07T07:04:37.053Z,64.65
2023-04-07T07:14:43.576Z,63.86
2023-04-07T07:24:50.044Z,64.59
2023-04-07T07:34:56.658Z,63.29
2023-04-07T07:45:04.419Z,59.50
2023-04-07T07:55:12.014Z,59.05
2023-04-07T08:05:19.457Z,58.85
2023-04-07T08:15:26.712Z,58.73
2023-04-07T08:25:33.817Z,58.09
2023-04-07T08:35:40.387Z,57.77
2023-04-07T08:45:46.507Z,57.17
2023-04-07T08:55:52.551Z,56.85
2023-04-07T09:05:58.706Z,56.45
2023-04-07T09:16:04.755Z,56.19
2023-04-07T09:26:10.424Z,54.03
2023-04-07T09:36:15.912Z,54.24
2023-04-07T09:46:23.286Z,56.24
2023-04-07T09:56:30.788Z,55.96
2023-04-07T10:06:36.617Z,55.19
2023-04-07T10:16:42.207Z,54.57
2023-04-07T10:26:47.715Z,55.26
2023-04-07T10:36:53.260Z,54.57
2023-04-07T10:46:59.553Z,54.78
2023-04-07T10:57:05.160Z,53.77
2023-04-07T11:07:10.896Z,53.40
2023-04-07T11:17:16.265Z,54.10
2023-04-07T11:27:21.932Z,53.61
2023-04-07T11:37:27.681Z,55.09
2023-04-07T11:47:33.641Z,56.27
2023-04-07T11:57:39.199Z,56.45
2023-04-07T12:07:44.415Z,56.54
2023-04-07T12:17:50.370Z,57.15
2023-04-07T12:27:55.951Z,57.43
2023-04-07T12:38:01.884Z,57.79
2023-04-07T12:48:07.760Z,58.00
2023-04-07T12:58:13.111Z,58.33
2023-04-07T13:08:18.824Z,58.68
2023-04-07T13:18:24.716Z,59.02
2023-04-07T13:28:30.694Z,59.24
2023-04-07T13:38:36.596Z,59.44
2023-04-07T13:48:42.497Z,59.64
2023-04-07T13:58:48.118Z,59.84
2023-04-07T14:08:53.835Z,60.00
2023-04-07T14:18:59.884Z,60.16
2023-04-07T14:29:05.468Z,60.28
2023-04-07T14:39:11.349Z,60.42
2023-04-07T14:49:16.993Z,60.52
2023-04-07T14:59:23.005Z,60.52
2023-04-07T15:09:28.800Z,60.65
2023-04-07T15:19:34.444Z,60.76
2023-04-07T15:29:40.294Z,60.89
2023-04-07T15:39:46.065Z,60.91
2023-04-07T15:49:51.551Z,61.08
2023-04-07T15:59:57.164Z,61.16
2023-04-07T16:10:02.967Z,60.93
2023-04-07T16:20:09.000Z,61.43
2023-04-07T16:30:14.735Z,61.39
2023-04-07T16:40:20.613Z,61.70
2023-04-07T16:50:25.989Z,61.86
2023-04-07T17:00:32.076Z,61.86
2023-04-07T17:10:37.791Z,61.88
2023-04-07T17:20:43.294Z,61.87
2023-04-07T17:30:48.589Z,61.72
2023-04-07T17:40:53.792Z,61.83
2023-04-07T17:51:00.031Z,61.94
2023-04-07T18:01:05.738Z,62.09
2023-04-07T18:11:11.043Z,62.16
2023-04-07T18:21:17.027Z,62.18
2023-04-07T18:31:22.577Z,62.27
2023-04-07T18:41:28.329Z,62.30
2023-04-07T18:51:33.628Z,62.29
2023-04-07T19:01:39.359Z,62.29
2023-04-07T19:11:44.842Z,62.27
2023-04-07T19:21:50.481Z,62.39
2023-04-07T19:31:56.482Z,62.47
2023-04-07T19:42:00.828Z,58.57
2023-04-07T19:52:05.425Z,62.50
2023-04-07T20:02:10.379Z,64.24
2023-04-07T20:12:16.187Z,61.40
2023-04-07T20:22:22.828Z,61.33
2023-04-07T20:32:28.875Z,61.29
2023-04-07T20:42:34.687Z,61.43
2023-04-07T20:52:40.286Z,62.44
2023-04-07T21:02:46.519Z,62.70
2023-04-07T21:12:52.472Z,63.01
2023-04-07T21:22:58.848Z,63.07
2023-04-07T21:33:04.798Z,63.24
2023-04-07T21:43:10.527Z,63.41
2023-04-07T21:53:16.673Z,63.66
2023-04-07T22:03:22.593Z,63.89
2023-04-07T22:13:28.914Z,63.96
2023-04-07T22:23:34.659Z,64.25
2023-04-07T22:33:40.409Z,64.50
2023-04-07T22:43:46.231Z,64.72
2023-04-07T22:53:52.118Z,64.77
2023-04-07T23:03:57.948Z,65.13
2023-04-07T23:14:03.566Z,65.54
2023-04-07T23:24:09.613Z,65.91
2023-04-07T23:34:15.764Z,66.20
2023-04-07T23:44:21.407Z,66.39
2023-04-07T23:54:27.279Z,66.50
